Cleveland Corner, Vermont
Current Conditions -  °F | °C
As of 2:54 PM on Friday 19 Dec 2014 (Local Time) from KMVL Reporting Station
Overcast Overcast  
Wind Chill: 12°   Ceiling: 1400
Heat Index: 23°   Visibility: 10mi
Dew Point: 16°   Wind: 10mph
Humidity: 74%   Direction: 340°NNW
Pressure: 30.08"   Gusts: NA
Location:  44.5482°N, 72.6315°W
Report Text: KMVL 191954Z AUTO 34009KT 10SM OVC014 M05/M09 A3008 RMK AO2 SLP199 T10501089 TSNO
Loading
Personal Weather Stations






























Interactive Weather Map New forecast layout! Learn more

10-Day Weather Forecast

Advertisements
Track Severe Weather on mobile